sensor_id;sensor_type;location;lat;lon;timestamp;pressure;altitude;pressure_sealevel;temperature;humidity
68873;BME280;55907;50.806;12.882;2022-09-09T00:02:57;970.5;;;15.4;70.5
68873;BME280;55907;50.806;12.882;2022-09-09T00:05:58;970.5;;;15.4;70.3
68873;BME280;55907;50.806;12.882;2022-09-09T00:09:00;970.4;;;15.5;70.3
68873;BME280;55907;50.806;12.882;2022-09-09T00:12:02;970.5;;;15.5;70.2
68873;BME280;55907;50.806;12.882;2022-09-09T00:15:00;970.4;;;15.4;70.1
68873;BME280;55907;50.806;12.882;2022-09-09T00:18:07;970.4;;;15.5;70.2
68873;BME280;55907;50.806;12.882;2022-09-09T00:21:05;970.3;;;15.4;70.3
68873;BME280;55907;50.806;12.882;2022-09-09T00:24:23;970.3;;;15.4;70.4
68873;BME280;55907;50.806;12.882;2022-09-09T00:27:07;970.3;;;15.5;70.3
68873;BME280;55907;50.806;12.882;2022-09-09T00:30:15;970.2;;;15.4;70.6
68873;BME280;55907;50.806;12.882;2022-09-09T00:33:11;970.2;;;15.4;70.3
68873;BME280;55907;50.806;12.882;2022-09-09T00:36:13;970.2;;;15.4;70.4
68873;BME280;55907;50.806;12.882;2022-09-09T00:39:13;970.2;;;15.4;70.3
68873;BME280;55907;50.806;12.882;2022-09-09T00:42:14;970.2;;;15.4;70.3
68873;BME280;55907;50.806;12.882;2022-09-09T00:45:38;970.2;;;15.4;70.5
68873;BME280;55907;50.806;12.882;2022-09-09T00:48:13;970.1;;;15.4;70.7
68873;BME280;55907;50.806;12.882;2022-09-09T00:51:19;970.2;;;15.4;71.1
68873;BME280;55907;50.806;12.882;2022-09-09T00:54:27;970.2;;;15.4;71.1
68873;BME280;55907;50.806;12.882;2022-09-09T00:57:23;970.3;;;15.3;71.3
68873;BME280;55907;50.806;12.882;2022-09-09T01:00:22;970.3;;;15.3;72.5
68873;BME280;55907;50.806;12.882;2022-09-09T01:03:27;970.2;;;15.2;71.9
68873;BME280;55907;50.806;12.882;2022-09-09T01:06:29;970.2;;;15.2;72.5
68873;BME280;55907;50.806;12.882;2022-09-09T01:09:27;970.2;;;15.1;72.7
68873;BME280;55907;50.806;12.882;2022-09-09T01:12:30;970.2;;;15.1;72.2
68873;BME280;55907;50.806;12.882;2022-09-09T01:15:29;970.3;;;15.0;72.6
68873;BME280;55907;50.806;12.882;2022-09-09T01:18:31;970.3;;;15.0;73.3
68873;BME280;55907;50.806;12.882;2022-09-09T01:21:35;970.3;;;15.0;73.4
68873;BME280;55907;50.806;12.882;2022-09-09T01:24:37;970.3;;;15.0;74.4
68873;BME280;55907;50.806;12.882;2022-09-09T01:27:33;970.3;;;14.9;74.2
68873;BME280;55907;50.806;12.882;2022-09-09T01:30:35;970.3;;;14.9;74.0
68873;BME280;55907;50.806;12.882;2022-09-09T01:33:35;970.3;;;14.8;73.2
68873;BME280;55907;50.806;12.882;2022-09-09T01:36:41;970.2;;;14.8;73.3
68873;BME280;55907;50.806;12.882;2022-09-09T01:39:40;970.2;;;14.8;73.1
68873;BME280;55907;50.806;12.882;2022-09-09T01:42:39;970.2;;;14.8;73.2
68873;BME280;55907;50.806;12.882;2022-09-09T01:45:42;970.1;;;14.9;72.9
68873;BME280;55907;50.806;12.882;2022-09-09T01:48:43;970.1;;;15.0;72.3
68873;BME280;55907;50.806;12.882;2022-09-09T01:51:46;970.1;;;15.1;71.7
68873;BME280;55907;50.806;12.882;2022-09-09T01:54:45;970.1;;;15.2;71.4
68873;BME280;55907;50.806;12.882;2022-09-09T01:57:53;970.1;;;15.2;71.2
68873;BME280;55907;50.806;12.882;2022-09-09T02:00:54;970.1;;;15.3;71.1
68873;BME280;55907;50.806;12.882;2022-09-09T02:03:52;970.1;;;15.3;71.0
68873;BME280;55907;50.806;12.882;2022-09-09T02:06:54;970.1;;;15.3;70.9
68873;BME280;55907;50.806;12.882;2022-09-09T02:09:58;970.1;;;15.3;70.9
68873;BME280;55907;50.806;12.882;2022-09-09T02:13:00;970.1;;;15.3;70.8
68873;BME280;55907;50.806;12.882;2022-09-09T02:15:58;970.1;;;15.4;70.6
68873;BME280;55907;50.806;12.882;2022-09-09T02:19:01;970.1;;;15.4;70.6
68873;BME280;55907;50.806;12.882;2022-09-09T02:21:59;970.2;;;15.4;70.7
68873;BME280;55907;50.806;12.882;2022-09-09T02:25:00;970.1;;;15.4;71.1
68873;BME280;55907;50.806;12.882;2022-09-09T02:28:02;970.1;;;15.3;71.0
68873;BME280;55907;50.806;12.882;2022-09-09T02:31:02;970.1;;;15.3;70.9
68873;BME280;55907;50.806;12.882;2022-09-09T02:34:05;970.1;;;15.3;71.4
68873;BME280;55907;50.806;12.882;2022-09-09T02:37:06;970.1;;;15.3;71.2
68873;BME280;55907;50.806;12.882;2022-09-09T02:40:10;970.1;;;15.2;71.6
68873;BME280;55907;50.806;12.882;2022-09-09T02:43:08;970.1;;;15.2;71.2
68873;BME280;55907;50.806;12.882;2022-09-09T02:46:20;970.1;;;15.1;71.7
68873;BME280;55907;50.806;12.882;2022-09-09T02:49:18;970.1;;;15.1;71.6
68873;BME280;55907;50.806;12.882;2022-09-09T02:52:14;970.1;;;15.1;72.3
68873;BME280;55907;50.806;12.882;2022-09-09T02:55:18;970.0;;;15.0;72.9
68873;BME280;55907;50.806;12.882;2022-09-09T02:58:17;970.0;;;15.0;73.3
68873;BME280;55907;50.806;12.882;2022-09-09T03:01:17;970.1;;;14.9;73.2
68873;BME280;55907;50.806;12.882;2022-09-09T03:04:18;970.0;;;14.9;73.0
68873;BME280;55907;50.806;12.882;2022-09-09T03:07:20;970.1;;;14.8;73.6
68873;BME280;55907;50.806;12.882;2022-09-09T03:10:21;970.0;;;14.7;73.5
68873;BME280;55907;50.806;12.882;2022-09-09T03:13:22;970.1;;;14.6;73.6
68873;BME280;55907;50.806;12.882;2022-09-09T03:16:24;970.1;;;14.6;74.3
68873;BME280;55907;50.806;12.882;2022-09-09T03:19:26;970.1;;;14.5;73.8
68873;BME280;55907;50.806;12.882;2022-09-09T03:22:27;970.1;;;14.5;74.8
68873;BME280;55907;50.806;12.882;2022-09-09T03:25:28;970.1;;;14.4;74.5
68873;BME280;55907;50.806;12.882;2022-09-09T03:28:30;970.2;;;14.4;74.7
68873;BME280;55907;50.806;12.882;2022-09-09T03:31:31;970.2;;;14.4;74.5
68873;BME280;55907;50.806;12.882;2022-09-09T03:34:33;970.1;;;14.3;74.9
68873;BME280;55907;50.806;12.882;2022-09-09T03:37:34;970.1;;;14.4;74.4
68873;BME280;55907;50.806;12.882;2022-09-09T03:40:35;970.2;;;14.4;75.0
68873;BME280;55907;50.806;12.882;2022-09-09T03:43:37;970.1;;;14.4;76.0
68873;BME280;55907;50.806;12.882;2022-09-09T03:46:38;970.1;;;14.4;76.3
68873;BME280;55907;50.806;12.882;2022-09-09T03:49:40;970.1;;;14.4;76.7
68873;BME280;55907;50.806;12.882;2022-09-09T03:52:42;970.1;;;14.4;75.9
68873;BME280;55907;50.806;12.882;2022-09-09T03:55:43;970.1;;;14.4;75.1
68873;BME280;55907;50.806;12.882;2022-09-09T03:58:44;970.1;;;14.4;74.3
68873;BME280;55907;50.806;12.882;2022-09-09T04:01:45;970.1;;;14.4;74.2
68873;BME280;55907;50.806;12.882;2022-09-09T04:04:47;970.1;;;14.5;73.7
68873;BME280;55907;50.806;12.882;2022-09-09T04:07:48;970.1;;;14.5;74.3
68873;BME280;55907;50.806;12.882;2022-09-09T04:10:50;970.1;;;14.5;74.6
68873;BME280;55907;50.806;12.882;2022-09-09T04:13:51;970.1;;;14.5;74.4
68873;BME280;55907;50.806;12.882;2022-09-09T04:16:53;970.1;;;14.5;75.0
68873;BME280;55907;50.806;12.882;2022-09-09T04:19:54;970.0;;;14.5;75.7
68873;BME280;55907;50.806;12.882;2022-09-09T04:22:56;970.0;;;14.5;76.2
68873;BME280;55907;50.806;12.882;2022-09-09T04:25:58;970.0;;;14.4;76.5
68873;BME280;55907;50.806;12.882;2022-09-09T04:32:00;970.0;;;14.4;76.9
68873;BME280;55907;50.806;12.882;2022-09-09T04:35:01;970.0;;;14.3;76.9
68873;BME280;55907;50.806;12.882;2022-09-09T04:38:03;970.1;;;14.3;77.0
68873;BME280;55907;50.806;12.882;2022-09-09T04:41:05;970.1;;;14.3;77.2
68873;BME280;55907;50.806;12.882;2022-09-09T04:44:05;970.1;;;14.2;77.0
68873;BME280;55907;50.806;12.882;2022-09-09T04:47:07;970.1;;;14.3;76.9
68873;BME280;55907;50.806;12.882;2022-09-09T04:50:09;970.1;;;14.3;76.9
68873;BME280;55907;50.806;12.882;2022-09-09T04:53:10;970.1;;;14.2;77.0
68873;BME280;55907;50.806;12.882;2022-09-09T04:56:13;970.1;;;14.3;77.4
68873;BME280;55907;50.806;12.882;2022-09-09T04:59:13;970.1;;;14.3;77.4
68873;BME280;55907;50.806;12.882;2022-09-09T05:02:14;970.2;;;14.3;78.1
68873;BME280;55907;50.806;12.882;2022-09-09T05:05:16;970.2;;;14.4;77.8
68873;BME280;55907;50.806;12.882;2022-09-09T05:08:17;970.2;;;14.4;78.3
68873;BME280;55907;50.806;12.882;2022-09-09T05:11:21;970.3;;;14.4;78.1
68873;BME280;55907;50.806;12.882;2022-09-09T05:14:20;970.3;;;14.4;78.0
68873;BME280;55907;50.806;12.882;2022-09-09T05:17:21;970.2;;;14.4;76.7
68873;BME280;55907;50.806;12.882;2022-09-09T05:20:23;970.2;;;14.5;77.1
68873;BME280;55907;50.806;12.882;2022-09-09T05:23:24;970.3;;;14.5;77.0
68873;BME280;55907;50.806;12.882;2022-09-09T05:26:26;970.3;;;14.6;78.1
68873;BME280;55907;50.806;12.882;2022-09-09T05:29:28;970.3;;;14.6;77.0
68873;BME280;55907;50.806;12.882;2022-09-09T05:32:29;970.3;;;14.6;77.0
68873;BME280;55907;50.806;12.882;2022-09-09T05:35:30;970.3;;;14.6;77.6
68873;BME280;55907;50.806;12.882;2022-09-09T05:38:32;970.3;;;14.7;77.1
68873;BME280;55907;50.806;12.882;2022-09-09T05:41:33;970.3;;;14.8;75.9
68873;BME280;55907;50.806;12.882;2022-09-09T05:44:34;970.3;;;14.8;75.7
68873;BME280;55907;50.806;12.882;2022-09-09T05:47:36;970.3;;;15.0;75.9
68873;BME280;55907;50.806;12.882;2022-09-09T05:50:37;970.3;;;15.1;75.8
68873;BME280;55907;50.806;12.882;2022-09-09T05:53:39;970.3;;;15.2;75.3
68873;BME280;55907;50.806;12.882;2022-09-09T05:56:41;970.3;;;15.3;75.0
68873;BME280;55907;50.806;12.882;2022-09-09T05:59:42;970.4;;;15.4;74.1
68873;BME280;55907;50.806;12.882;2022-09-09T06:05:45;970.5;;;15.6;73.7
68873;BME280;55907;50.806;12.882;2022-09-09T06:08:47;970.5;;;15.8;73.4
68873;BME280;55907;50.806;12.882;2022-09-09T06:11:47;970.5;;;16.0;72.9
68873;BME280;55907;50.806;12.882;2022-09-09T06:14:49;970.5;;;16.2;72.8
68873;BME280;55907;50.806;12.882;2022-09-09T06:17:54;970.4;;;16.3;72.5
68873;BME280;55907;50.806;12.882;2022-09-09T06:20:54;970.5;;;16.4;72.3
68873;BME280;55907;50.806;12.882;2022-09-09T06:23:53;970.4;;;16.6;72.4
68873;BME280;55907;50.806;12.882;2022-09-09T06:26:55;970.4;;;16.8;71.4
68873;BME280;55907;50.806;12.882;2022-09-09T06:29:56;970.4;;;17.1;70.4
68873;BME280;55907;50.806;12.882;2022-09-09T06:32:57;970.5;;;17.2;71.0
68873;BME280;55907;50.806;12.882;2022-09-09T06:35:59;970.5;;;17.2;71.2
68873;BME280;55907;50.806;12.882;2022-09-09T06:39:00;970.5;;;17.3;70.7
68873;BME280;55907;50.806;12.882;2022-09-09T06:42:02;970.5;;;17.2;70.5
68873;BME280;55907;50.806;12.882;2022-09-09T06:45:03;970.5;;;17.2;71.1
68873;BME280;55907;50.806;12.882;2022-09-09T06:48:05;970.5;;;17.1;71.0
68873;BME280;55907;50.806;12.882;2022-09-09T06:51:08;970.5;;;17.2;71.3
68873;BME280;55907;50.806;12.882;2022-09-09T06:54:08;970.5;;;17.3;71.3
68873;BME280;55907;50.806;12.882;2022-09-09T06:57:09;970.5;;;17.6;70.5
68873;BME280;55907;50.806;12.882;2022-09-09T07:00:11;970.4;;;17.8;69.2
68873;BME280;55907;50.806;12.882;2022-09-09T07:03:12;970.5;;;18.0;69.3
68873;BME280;55907;50.806;12.882;2022-09-09T07:06:15;970.5;;;18.2;69.1
68873;BME280;55907;50.806;12.882;2022-09-09T07:09:15;970.5;;;18.4;68.6
68873;BME280;55907;50.806;12.882;2022-09-09T07:12:16;970.5;;;18.6;68.9
68873;BME280;55907;50.806;12.882;2022-09-09T07:15:17;970.6;;;18.7;68.0
68873;BME280;55907;50.806;12.882;2022-09-09T07:18:19;970.6;;;18.8;67.3
68873;BME280;55907;50.806;12.882;2022-09-09T07:21:20;970.6;;;18.9;66.4
68873;BME280;55907;50.806;12.882;2022-09-09T07:24:22;970.6;;;18.9;66.6
68873;BME280;55907;50.806;12.882;2022-09-09T07:27:23;970.6;;;18.9;67.3
68873;BME280;55907;50.806;12.882;2022-09-09T07:30:24;970.6;;;19.0;67.5
68873;BME280;55907;50.806;12.882;2022-09-09T07:33:26;970.6;;;19.1;67.4
68873;BME280;55907;50.806;12.882;2022-09-09T07:36:28;970.6;;;19.2;66.8
68873;BME280;55907;50.806;12.882;2022-09-09T07:39:29;970.7;;;19.5;66.1
68873;BME280;55907;50.806;12.882;2022-09-09T07:42:30;970.7;;;19.5;64.5
68873;BME280;55907;50.806;12.882;2022-09-09T07:45:33;970.6;;;19.6;63.8
68873;BME280;55907;50.806;12.882;2022-09-09T07:48:33;970.7;;;19.6;64.1
68873;BME280;55907;50.806;12.882;2022-09-09T07:51:36;970.7;;;19.7;63.5
68873;BME280;55907;50.806;12.882;2022-09-09T07:54:36;970.7;;;19.7;63.7
68873;BME280;55907;50.806;12.882;2022-09-09T07:57:37;970.8;;;20.0;63.7
68873;BME280;55907;50.806;12.882;2022-09-09T08:03:40;970.8;;;20.7;61.3
68873;BME280;55907;50.806;12.882;2022-09-09T08:06:43;970.8;;;21.0;60.6
68873;BME280;55907;50.806;12.882;2022-09-09T08:09:43;970.9;;;21.2;58.7
68873;BME280;55907;50.806;12.882;2022-09-09T08:12:44;970.8;;;21.4;58.6
68873;BME280;55907;50.806;12.882;2022-09-09T08:15:45;970.9;;;21.5;58.9
68873;BME280;55907;50.806;12.882;2022-09-09T08:18:47;970.9;;;21.6;57.7
68873;BME280;55907;50.806;12.882;2022-09-09T08:21:48;970.8;;;21.6;57.3
68873;BME280;55907;50.806;12.882;2022-09-09T08:24:50;970.9;;;21.8;57.2
68873;BME280;55907;50.806;12.882;2022-09-09T08:27:52;970.8;;;21.9;56.1
68873;BME280;55907;50.806;12.882;2022-09-09T08:30:52;970.8;;;21.8;55.0
68873;BME280;55907;50.806;12.882;2022-09-09T08:33:55;970.8;;;21.7;54.9
68873;BME280;55907;50.806;12.882;2022-09-09T08:36:55;970.9;;;21.7;55.0
68873;BME280;55907;50.806;12.882;2022-09-09T08:39:57;970.9;;;21.8;55.0
68873;BME280;55907;50.806;12.882;2022-09-09T08:42:59;970.9;;;22.0;54.3
68873;BME280;55907;50.806;12.882;2022-09-09T08:46:03;970.9;;;22.3;54.2
68873;BME280;55907;50.806;12.882;2022-09-09T08:49:06;970.9;;;22.7;51.8
68873;BME280;55907;50.806;12.882;2022-09-09T08:52:03;971.0;;;23.0;51.9
68873;BME280;55907;50.806;12.882;2022-09-09T08:55:16;971.0;;;23.3;52.2
68873;BME280;55907;50.806;12.882;2022-09-09T08:58:11;971.0;;;23.4;50.7
68873;BME280;55907;50.806;12.882;2022-09-09T09:01:16;971.0;;;24.1;48.5
68873;BME280;55907;50.806;12.882;2022-09-09T09:04:14;971.0;;;25.4;46.5
68873;BME280;55907;50.806;12.882;2022-09-09T09:07:18;971.0;;;26.5;45.0
68873;BME280;55907;50.806;12.882;2022-09-09T09:10:17;971.0;;;26.5;44.1
68873;BME280;55907;50.806;12.882;2022-09-09T09:13:14;971.0;;;25.7;44.4
68873;BME280;55907;50.806;12.882;2022-09-09T09:16:17;971.0;;;25.6;43.5
68873;BME280;55907;50.806;12.882;2022-09-09T09:19:15;970.9;;;25.8;42.2
68873;BME280;55907;50.806;12.882;2022-09-09T09:22:19;970.9;;;26.4;42.5
68873;BME280;55907;50.806;12.882;2022-09-09T09:25:19;970.9;;;27.0;40.3
68873;BME280;55907;50.806;12.882;2022-09-09T09:28:23;971.0;;;26.6;40.5
68873;BME280;55907;50.806;12.882;2022-09-09T09:31:19;970.9;;;25.8;42.5
68873;BME280;55907;50.806;12.882;2022-09-09T09:34:21;970.9;;;25.4;44.0
68873;BME280;55907;50.806;12.882;2022-09-09T09:37:26;970.8;;;24.9;44.9
68873;BME280;55907;50.806;12.882;2022-09-09T09:40:24;970.9;;;24.7;45.6
68873;BME280;55907;50.806;12.882;2022-09-09T09:43:27;970.9;;;25.2;45.4
68873;BME280;55907;50.806;12.882;2022-09-09T09:46:27;970.9;;;25.3;44.6
68873;BME280;55907;50.806;12.882;2022-09-09T09:49:27;970.8;;;25.1;45.0
68873;BME280;55907;50.806;12.882;2022-09-09T09:52:30;970.9;;;25.2;45.4
68873;BME280;55907;50.806;12.882;2022-09-09T09:55:32;970.9;;;25.0;46.0
68873;BME280;55907;50.806;12.882;2022-09-09T09:58:33;970.9;;;24.6;46.9
68873;BME280;55907;50.806;12.882;2022-09-09T10:04:34;970.8;;;26.3;43.3
68873;BME280;55907;50.806;12.882;2022-09-09T10:07:36;970.9;;;26.5;43.0
68873;BME280;55907;50.806;12.882;2022-09-09T10:10:46;970.9;;;26.5;38.5
68873;BME280;55907;50.806;12.882;2022-09-09T10:13:42;970.9;;;26.6;37.2
68873;BME280;55907;50.806;12.882;2022-09-09T10:16:47;970.8;;;26.4;37.8
68873;BME280;55907;50.806;12.882;2022-09-09T10:19:44;970.8;;;26.1;37.5
68873;BME280;55907;50.806;12.882;2022-09-09T10:25:57;970.8;;;26.1;38.9
68873;BME280;55907;50.806;12.882;2022-09-09T10:28:54;970.8;;;26.3;38.8
68873;BME280;55907;50.806;12.882;2022-09-09T10:31:53;970.8;;;26.3;39.2
68873;BME280;55907;50.806;12.882;2022-09-09T10:34:55;970.8;;;26.4;38.4
68873;BME280;55907;50.806;12.882;2022-09-09T10:37:58;970.8;;;26.5;39.4
68873;BME280;55907;50.806;12.882;2022-09-09T10:41:06;970.8;;;26.3;38.8
68873;BME280;55907;50.806;12.882;2022-09-09T10:47:12;970.7;;;26.2;39.6
68873;BME280;55907;50.806;12.882;2022-09-09T10:50:09;970.7;;;26.4;40.3
68873;BME280;55907;50.806;12.882;2022-09-09T10:56:01;970.7;;;25.7;40.7
68873;BME280;55907;50.806;12.882;2022-09-09T10:59:01;970.7;;;25.8;40.7
68873;BME280;55907;50.806;12.882;2022-09-09T11:02:04;970.7;;;25.8;41.3
68873;BME280;55907;50.806;12.882;2022-09-09T11:05:04;970.7;;;25.9;40.9
68873;BME280;55907;50.806;12.882;2022-09-09T11:08:05;970.7;;;25.9;41.0
68873;BME280;55907;50.806;12.882;2022-09-09T11:11:09;970.7;;;25.8;40.2
68873;BME280;55907;50.806;12.882;2022-09-09T11:14:11;970.6;;;25.8;40.9
68873;BME280;55907;50.806;12.882;2022-09-09T11:17:10;970.6;;;26.2;40.7
68873;BME280;55907;50.806;12.882;2022-09-09T11:20:12;970.6;;;26.3;39.7
68873;BME280;55907;50.806;12.882;2022-09-09T11:23:11;970.6;;;25.9;41.3
68873;BME280;55907;50.806;12.882;2022-09-09T11:26:14;970.6;;;25.7;40.8
68873;BME280;55907;50.806;12.882;2022-09-09T11:32:28;970.7;;;26.1;42.7
68873;BME280;55907;50.806;12.882;2022-09-09T11:35:29;970.6;;;26.1;38.8
68873;BME280;55907;50.806;12.882;2022-09-09T11:38:19;970.6;;;25.7;39.7
68873;BME280;55907;50.806;12.882;2022-09-09T11:41:19;970.6;;;25.5;40.7
68873;BME280;55907;50.806;12.882;2022-09-09T11:44:24;970.6;;;25.4;42.3
68873;BME280;55907;50.806;12.882;2022-09-09T11:47:23;970.7;;;25.2;42.9
68873;BME280;55907;50.806;12.882;2022-09-09T11:50:32;970.6;;;25.1;43.5
68873;BME280;55907;50.806;12.882;2022-09-09T11:53:23;970.6;;;25.4;43.9
68873;BME280;55907;50.806;12.882;2022-09-09T11:56:27;970.6;;;25.8;42.9
68873;BME280;55907;50.806;12.882;2022-09-09T11:59:27;970.5;;;25.7;43.2
68873;BME280;55907;50.806;12.882;2022-09-09T12:02:28;970.6;;;25.9;43.3
68873;BME280;55907;50.806;12.882;2022-09-09T12:05:38;970.5;;;26.1;44.0
68873;BME280;55907;50.806;12.882;2022-09-09T12:08:30;970.5;;;26.1;41.6
68873;BME280;55907;50.806;12.882;2022-09-09T12:11:31;970.5;;;25.5;43.5
68873;BME280;55907;50.806;12.882;2022-09-09T12:14:36;970.5;;;25.1;44.1
68873;BME280;55907;50.806;12.882;2022-09-09T12:17:42;970.5;;;25.0;43.7
68873;BME280;55907;50.806;12.882;2022-09-09T12:20:36;970.4;;;24.7;45.0
68873;BME280;55907;50.806;12.882;2022-09-09T12:23:40;970.4;;;24.7;44.2
68873;BME280;55907;50.806;12.882;2022-09-09T12:26:41;970.4;;;24.6;44.2
68873;BME280;55907;50.806;12.882;2022-09-09T12:29:45;970.3;;;25.0;43.2
68873;BME280;55907;50.806;12.882;2022-09-09T12:32:41;970.4;;;25.4;44.9
68873;BME280;55907;50.806;12.882;2022-09-09T12:35:43;970.3;;;26.2;41.2
68873;BME280;55907;50.806;12.882;2022-09-09T12:38:44;970.3;;;26.4;39.4
68873;BME280;55907;50.806;12.882;2022-09-09T12:41:51;970.3;;;26.2;38.5
68873;BME280;55907;50.806;12.882;2022-09-09T12:44:55;970.2;;;26.0;37.8
68873;BME280;55907;50.806;12.882;2022-09-09T12:47:51;970.1;;;25.6;39.0
68873;BME280;55907;50.806;12.882;2022-09-09T12:50:51;970.1;;;25.5;38.2
68873;BME280;55907;50.806;12.882;2022-09-09T12:53:51;970.1;;;25.4;38.4
68873;BME280;55907;50.806;12.882;2022-09-09T12:56:51;970.1;;;25.1;39.5
68873;BME280;55907;50.806;12.882;2022-09-09T13:00:05;970.1;;;25.1;41.3
68873;BME280;55907;50.806;12.882;2022-09-09T13:02:56;970.1;;;25.4;40.5
68873;BME280;55907;50.806;12.882;2022-09-09T13:05:58;970.1;;;25.7;39.2
68873;BME280;55907;50.806;12.882;2022-09-09T13:08:58;970.1;;;25.8;39.7
68873;BME280;55907;50.806;12.882;2022-09-09T13:11:58;970.2;;;25.7;38.7
68873;BME280;55907;50.806;12.882;2022-09-09T13:15:00;970.2;;;25.3;38.6
68873;BME280;55907;50.806;12.882;2022-09-09T13:18:05;970.1;;;24.8;39.3
68873;BME280;55907;50.806;12.882;2022-09-09T13:21:02;970.1;;;24.4;40.8
68873;BME280;55907;50.806;12.882;2022-09-09T13:24:05;970.2;;;23.9;42.0
68873;BME280;55907;50.806;12.882;2022-09-09T13:27:28;970.2;;;23.8;42.8
68873;BME280;55907;50.806;12.882;2022-09-09T13:30:19;970.2;;;23.8;43.2
68873;BME280;55907;50.806;12.882;2022-09-09T13:33:20;970.2;;;23.8;42.7
68873;BME280;55907;50.806;12.882;2022-09-09T13:36:11;970.1;;;24.0;42.1
68873;BME280;55907;50.806;12.882;2022-09-09T13:39:16;970.0;;;24.3;41.4
68873;BME280;55907;50.806;12.882;2022-09-09T13:42:21;970.1;;;24.4;41.5
68873;BME280;55907;50.806;12.882;2022-09-09T13:45:16;970.0;;;24.5;40.9
68873;BME280;55907;50.806;12.882;2022-09-09T13:48:18;969.9;;;24.5;40.9
68873;BME280;55907;50.806;12.882;2022-09-09T13:51:27;969.9;;;24.8;40.4
68873;BME280;55907;50.806;12.882;2022-09-09T13:54:19;969.9;;;24.9;39.8
68873;BME280;55907;50.806;12.882;2022-09-09T13:57:20;969.9;;;24.8;40.0
68873;BME280;55907;50.806;12.882;2022-09-09T14:00:21;969.8;;;24.7;40.8
68873;BME280;55907;50.806;12.882;2022-09-09T14:03:21;969.9;;;24.7;40.8
68873;BME280;55907;50.806;12.882;2022-09-09T14:09:24;969.8;;;24.4;40.7
68873;BME280;55907;50.806;12.882;2022-09-09T14:12:26;969.8;;;24.3;40.3
68873;BME280;55907;50.806;12.882;2022-09-09T14:15:27;969.8;;;24.1;40.6
68873;BME280;55907;50.806;12.882;2022-09-09T14:18:28;969.7;;;24.0;40.1
68873;BME280;55907;50.806;12.882;2022-09-09T14:21:30;969.8;;;24.1;40.1
68873;BME280;55907;50.806;12.882;2022-09-09T14:27:32;969.8;;;24.3;41.4
68873;BME280;55907;50.806;12.882;2022-09-09T14:30:34;969.8;;;24.4;41.1
68873;BME280;55907;50.806;12.882;2022-09-09T14:33:35;969.7;;;24.4;40.6
68873;BME280;55907;50.806;12.882;2022-09-09T14:36:37;969.7;;;24.2;42.1
68873;BME280;55907;50.806;12.882;2022-09-09T14:39:38;969.7;;;23.9;40.4
68873;BME280;55907;50.806;12.882;2022-09-09T14:42:39;969.7;;;23.5;40.4
68873;BME280;55907;50.806;12.882;2022-09-09T14:45:41;969.8;;;22.9;39.3
68873;BME280;55907;50.806;12.882;2022-09-09T14:48:42;969.8;;;22.5;39.4
68873;BME280;55907;50.806;12.882;2022-09-09T14:51:43;969.9;;;22.3;40.6
68873;BME280;55907;50.806;12.882;2022-09-09T14:54:45;969.9;;;22.1;41.6
68873;BME280;55907;50.806;12.882;2022-09-09T14:57:46;970.0;;;21.9;42.5
68873;BME280;55907;50.806;12.882;2022-09-09T15:00:47;970.0;;;21.8;43.3
68873;BME280;55907;50.806;12.882;2022-09-09T15:03:51;970.0;;;21.7;44.0
68873;BME280;55907;50.806;12.882;2022-09-09T15:06:50;970.1;;;21.5;44.8
68873;BME280;55907;50.806;12.882;2022-09-09T15:09:52;970.1;;;21.4;45.0
68873;BME280;55907;50.806;12.882;2022-09-09T15:15:54;970.0;;;21.1;45.9
68873;BME280;55907;50.806;12.882;2022-09-09T15:18:57;970.0;;;21.0;45.7
68873;BME280;55907;50.806;12.882;2022-09-09T15:21:57;970.1;;;20.9;45.6
68873;BME280;55907;50.806;12.882;2022-09-09T15:24:58;970.1;;;20.9;45.4
68873;BME280;55907;50.806;12.882;2022-09-09T15:28:00;970.1;;;20.8;45.8
68873;BME280;55907;50.806;12.882;2022-09-09T15:31:04;970.2;;;20.7;45.9
68873;BME280;55907;50.806;12.882;2022-09-09T15:37:04;970.1;;;20.5;46.7
68873;BME280;55907;50.806;12.882;2022-09-09T15:40:06;970.1;;;20.4;47.3
68873;BME280;55907;50.806;12.882;2022-09-09T15:43:07;970.1;;;20.4;47.6
68873;BME280;55907;50.806;12.882;2022-09-09T15:46:21;970.1;;;20.4;48.1
68873;BME280;55907;50.806;12.882;2022-09-09T15:49:11;970.1;;;20.5;48.4
68873;BME280;55907;50.806;12.882;2022-09-09T15:52:11;970.1;;;20.7;49.0
68873;BME280;55907;50.806;12.882;2022-09-09T15:55:12;970.1;;;21.0;49.4
68873;BME280;55907;50.806;12.882;2022-09-09T15:58:14;969.8;;;21.1;49.8
68873;BME280;55907;50.806;12.882;2022-09-09T16:01:15;969.8;;;21.0;51.0
68873;BME280;55907;50.806;12.882;2022-09-09T16:04:17;969.8;;;20.9;51.8
68873;BME280;55907;50.806;12.882;2022-09-09T16:07:18;969.8;;;20.8;52.8
68873;BME280;55907;50.806;12.882;2022-09-09T16:10:19;969.9;;;20.8;52.9
68873;BME280;55907;50.806;12.882;2022-09-09T16:13:21;969.9;;;20.7;52.5
68873;BME280;55907;50.806;12.882;2022-09-09T16:16:24;969.9;;;20.7;53.2
68873;BME280;55907;50.806;12.882;2022-09-09T16:19:23;969.9;;;20.6;53.6
68873;BME280;55907;50.806;12.882;2022-09-09T16:22:25;970.1;;;20.6;54.3
68873;BME280;55907;50.806;12.882;2022-09-09T16:25:26;970.1;;;20.4;54.5
68873;BME280;55907;50.806;12.882;2022-09-09T16:28:28;970.1;;;20.4;54.9
68873;BME280;55907;50.806;12.882;2022-09-09T16:31:30;970.1;;;20.4;55.0
68873;BME280;55907;50.806;12.882;2022-09-09T16:34:30;970.1;;;20.3;55.3
68873;BME280;55907;50.806;12.882;2022-09-09T16:37:32;970.2;;;20.2;55.5
68873;BME280;55907;50.806;12.882;2022-09-09T16:40:33;970.2;;;20.1;56.3
68873;BME280;55907;50.806;12.882;2022-09-09T16:43:35;970.2;;;20.0;56.7
68873;BME280;55907;50.806;12.882;2022-09-09T16:46:38;970.3;;;19.8;57.5
68873;BME280;55907;50.806;12.882;2022-09-09T16:49:37;970.3;;;19.7;57.3
68873;BME280;55907;50.806;12.882;2022-09-09T16:52:38;970.3;;;19.6;56.8
68873;BME280;55907;50.806;12.882;2022-09-09T16:55:41;970.2;;;19.5;56.0
68873;BME280;55907;50.806;12.882;2022-09-09T16:58:42;970.3;;;19.4;55.4
68873;BME280;55907;50.806;12.882;2022-09-09T17:01:44;970.2;;;19.4;54.9
68873;BME280;55907;50.806;12.882;2022-09-09T17:04:44;970.3;;;19.3;55.4
68873;BME280;55907;50.806;12.882;2022-09-09T17:07:45;970.4;;;19.2;56.1
68873;BME280;55907;50.806;12.882;2022-09-09T17:10:47;970.4;;;19.1;56.4
68873;BME280;55907;50.806;12.882;2022-09-09T17:13:49;970.3;;;19.0;57.0
68873;BME280;55907;50.806;12.882;2022-09-09T17:16:50;970.2;;;18.9;57.1
68873;BME280;55907;50.806;12.882;2022-09-09T17:19:51;970.2;;;18.7;56.6
68873;BME280;55907;50.806;12.882;2022-09-09T17:22:52;970.3;;;18.6;57.0
68873;BME280;55907;50.806;12.882;2022-09-09T17:25:55;970.2;;;18.5;57.1
68873;BME280;55907;50.806;12.882;2022-09-09T17:28:56;970.2;;;18.4;57.0
68873;BME280;55907;50.806;12.882;2022-09-09T17:31:57;970.2;;;18.3;57.4